ADDS TAF Board (Experimental) INFO Settings

IDs: Format: Expanded Condensed

KLAS - Las Vegas/McCarran I, NV, US

Issued at 1454 UTC 18 Apr 2015
Updated at: 1511 UTC 18 Apr 2015
Time1456Z 18/16Z 18/17Z 18/18Z 18/19Z 18/20Z 18/21Z 18/22Z 18/23Z 19/00Z 19/01Z 19/02Z 19/03Z 19/04Z
Type OBS PRVL PRVL PRVL PRVL PRVL PRVL PRVL PRVL PRVL PRVL PRVL PRVL PRVL
VIS 10 >6 >6 >6 >6 >6 >6 >6 >6 >6 >6 >6 >6 >6
CIG -- -- -- -- -- -- -- -- -- -- -- -- -- --
Cover CLR SKC SKC SKC SKC SKC SKC SKC SKC SKC SKC SKC SKC SKC
FltCat VFR VFR VFR VFR VFR VFR VFR VFR VFR VFR VFR VFR VFR VFR
WX -- -- -- -- -- -- -- -- -- -- -- -- -- --
WDir 210 VRB VRB VRB VRB 110 110 110 110 110 110 200 200 200
WSpd 7 5 5 5 5 6 6 6 6 6 6 9 9 9
WGst -- -- -- -- -- -- -- -- -- -- -- -- -- --
R01/19
XWnd 1 VRB VRB VRB VRB -6 -6 -6 -6 -6 -6 -1 -1 -1
HWnd -7 VRB VRB VRB VRB 1 1 1 1 1 1 -9 -9 -9
R07/25
XWnd -6 VRB VRB VRB VRB -2 -2 -2 -2 -2 -2 -8 -8 -8
HWnd -3 VRB VRB VRB VRB 6 6 6 6 6 6 -3 -3 -3

NOTE: TEMPO conditions in [brackets]. Keep in mind TEMPO conditions might be better (lower impact) than prevailing conditions.

Raw TAF
KLAS 181454Z 1815/1912 21008KT P6SM SKC
  FM181600 VRB05KT P6SM SKC
  FM182000 11006KT P6SM SKC
  FM190200 20009KT P6SM SKC


Raw METAR
KLAS 181456Z 21007KT 10SM CLR 18/M08 A2996 RMK AO2 SLP129 T01831083 53014 $
KLAS 181356Z 19007KT 10SM CLR 15/M07 A2995 RMK AO2 SLP125 T01501067 $
KLAS 181256Z 23005KT 10SM CLR 16/M06 A2993 RMK AO2 SLP118 T01561061 $

METAR Board
Radar Display
Forecast Discussion

TAF Board Legend

Potential Impact
Threat None Slight Moderate High
Visibility (sm) ≥5.1 5.1>X≥3 3>X≥1 <1
Ceiling (100 ft) ≥30.1 30.1>X≥10 10>X≥5 <5
Wind Speed (kt) <10 10≤X<20 20≤X<30 ≥30
Wind Gust (kt) <15 15≤X<25 25≤X<35 ≥35
Weather No Wx Reported VCTS,-TS,-FZRA,SN TS,FZRA +TS,+FZRA,+SN